Maryland METAR Reports


Distance/Direction noted is from Ellicott City, MD as the crow flies

KCBE - Cumberland - 118 miles WNW
Updated: Thu, 04/17/2014 2:36 AM
Clear
Clear
 Wind from calm
Wind: Calm
Temperature: 36°F
Dew Point: 23°F
Humidity: 60%
Barometer: 30.55 inHg
Clouds: Clear
Visibility: 10 miles
2014/04/17 06:36 KCBE 170636Z AUTO 00000KT 10SM CLR 02/M05 A3055 RMK AO1
KHGR - Hagerstown - 57 miles NW
Updated: Thu, 04/17/2014 1:53 AM
Clear
Clear
 Wind from E
Wind: E 5 mph
Temperature: 36°F
Wind Chill: 32°F
Dew Point: 18°F
Humidity: 48%
Barometer: 30.54 inHg
Clouds: Clear
Visibility: 10 miles
2014/04/17 05:53 KHGR 170553Z AUTO 08004KT 10SM CLR 02/M08 A3054 RMK AO2 SLP357 T00171083 10056 20017 51013 TSNO
 
KFDK - Frederick - 34 miles NW
Updated: Thu, 04/17/2014 2:30 AM
Clear
Clear
 Wind from calm
Wind: Calm
Temperature: 32°F
Dew Point: 30°F
Humidity: 93%
Barometer: 30.59 inHg
Clouds: Clear
Visibility: 10 miles
2014/04/17 06:30 KFDK 170630Z AUTO 00000KT 10SM CLR 00/M01 A3059 RMK AO2
KGAI - Gaithersburg - 26 miles SW
Updated: Thu, 04/17/2014 2:35 AM
Clear
Clear
 Wind from calm
Wind: Calm
Temperature: 30°F
Dew Point: 21°F
Humidity: 69%
Barometer: 30.57 inHg
Clouds: Clear
Visibility: 10 miles
2014/04/17 06:35 KGAI 170635Z AUTO 00000KT 10SM CLR M01/M06 A3057 RMK AO1
 
KBWI - BWI Airport - 15 miles SE
Updated: Thu, 04/17/2014 1:54 AM
Clear
Clear
 Wind from calm
Wind: Calm
Temperature: 34°F
Dew Point: 25°F
Humidity: 70%
Barometer: 30.55 inHg
Clouds: Clear
Visibility: 10 miles
2014/04/17 05:54 KBWI 170554Z 00000KT 10SM CLR 01/M04 A3055 RMK AO2 SLP345 T00061044 10072 20000 51012
KNAK - Annapolis - 32 miles SSE
Updated: Thu, 04/17/2014 1:54 AM
Clear
Clear
 Wind from E
Wind: E 7 mph
Temperature: 43°F
Wind Chill: 39°F
Dew Point: 32°F
Humidity: 66%
Barometer: 30.55 inHg
Clouds: Clear
Visibility: 10 miles
2014/04/17 05:54 KNAK 170554Z AUTO 10006KT 10SM CLR 06/00 A3055 RMK AO2 SLP348 T00610000 10078 20050 51010
 
KESN - Easton - 63 miles SE
Updated: Thu, 04/17/2014 2:45 AM
Clear
Clear
 Wind from calm
Wind: Calm
Temperature: 34°F
Dew Point: 32°F
Humidity: 93%
Barometer: 30.58 inHg
Clouds: Clear
Visibility: 10 miles
2014/04/17 06:45 KESN 170645Z AUTO 00000KT 10SM CLR 01/00 A3058 RMK AO2 T00090000
KSBY - Salisbury - 112 miles SE
Updated: Thu, 04/17/2014 1:54 AM
Clear
Clear
 Wind from calm
Wind: Calm
Temperature: 36°F
Dew Point: 30°F
Humidity: 81%
Barometer: 30.53 inHg
Clouds: Clear
Visibility: 10 miles
2014/04/17 05:54 KSBY 170554Z AUTO 00000KT 10SM CLR 02/M01 A3053 RMK AO2 SLP342 T00171011 10072 20011 50003